Time;durP1;ratioP1;P1;durP2;ratioP2;P2;SDS_P1;SDS_P2;PMS_P1;PMS_P2;Temp;Humidity;BMP_temperature;BMP_pressure;BME280_temperature;BME280_humidity;BME280_pressure;Samples;Min_cycle;Max_cycle;Signal;HPM_P1;HPM_P2
2022/11/27 00:00:40;;;;;;;14.57;8.20;;;;;;;3.21;73.30;102572.38;4935439;29;20086;-82
2022/11/27 00:03:05;;;;;;;9.73;5.82;;;;;;;3.39;72.91;102584.53;4934903;29;20035;-85
2022/11/27 00:05:31;;;;;;;16.52;7.15;;;;;;;3.36;72.66;102587.06;4951211;28;20035;-82
2022/11/27 00:07:56;;;;;;;12.10;5.40;;;;;;;3.33;72.50;102585.31;4951344;29;20552;-82
2022/11/27 00:10:22;;;;;;;10.05;6.55;;;;;;;3.31;72.81;102579.31;4935257;29;20038;-82
2022/11/27 00:12:47;;;;;;;10.75;7.20;;;;;;;3.11;72.71;102553.50;4935174;29;20099;-82
2022/11/27 00:15:13;;;;;;;12.57;6.28;;;;;;;3.06;72.53;102557.72;4935636;29;20035;-82
2022/11/27 00:17:38;;;;;;;8.70;5.38;;;;;;;3.26;72.16;102575.00;4919118;29;20488;-82
2022/11/27 00:20:05;;;;;;;12.00;5.03;;;;;;;3.27;72.00;102569.91;4935280;28;20995;-82
2022/11/27 00:22:30;;;;;;;5.43;3.35;;;;;;;3.22;72.24;102568.97;4935367;29;20031;-82
2022/11/27 00:24:55;;;;;;;6.13;4.60;;;;;;;3.25;72.47;102573.31;4950799;28;20058;-83
2022/11/27 00:27:21;;;;;;;16.23;6.75;;;;;;;3.10;72.29;102577.38;4935111;29;20031;-82
2022/11/27 00:29:46;;;;;;;5.95;3.88;;;;;;;3.24;72.53;102594.56;4934997;29;20027;-82
2022/11/27 00:32:12;;;;;;;11.70;7.20;;;;;;;3.12;72.23;102568.00;4934520;28;20050;-82
2022/11/27 00:34:37;;;;;;;9.88;3.40;;;;;;;3.03;72.49;102561.91;4966917;28;20023;-82
2022/11/27 00:37:03;;;;;;;18.08;7.03;;;;;;;3.13;72.68;102589.31;4930929;28;20114;-82
2022/11/27 00:39:28;;;;;;;8.27;4.55;;;;;;;3.14;71.76;102560.34;4970333;28;20027;-83
2022/11/27 00:41:54;;;;;;;6.55;4.60;;;;;;;3.25;72.20;102593.75;4954158;28;20031;-83
2022/11/27 00:44:19;;;;;;;5.60;4.05;;;;;;;3.29;72.27;102592.94;4969920;28;20038;-82
2022/11/27 00:46:45;;;;;;;5.55;4.00;;;;;;;3.39;72.07;102597.34;4969667;28;20038;-82
2022/11/27 00:49:12;;;;;;;5.88;3.70;;;;;;;3.38;71.75;102590.50;4969963;28;20121;-82
2022/11/27 00:51:38;;;;;;;11.85;5.80;;;;;;;3.41;72.06;102600.78;4957302;28;20086;-82
2022/11/27 00:54:04;;;;;;;9.02;6.13;;;;;;;3.32;71.89;102585.31;4957435;28;20516;-82
2022/11/27 00:56:31;;;;;;;7.15;3.63;;;;;;;3.47;72.07;102602.56;4973605;28;20512;-82
2022/11/27 00:58:57;;;;;;;7.72;3.50;;;;;;;3.39;72.09;102589.66;4957438;28;20038;-82
2022/11/27 01:01:43;;;;;;;6.90;5.00;;;;;;;3.45;71.99;102602.53;4973201;28;20030;-82
2022/11/27 01:04:11;;;;;;;9.75;5.70;;;;;;;3.42;71.90;102605.03;4973152;28;20062;-82
2022/11/27 01:06:36;;;;;;;10.07;6.10;;;;;;;3.39;72.29;102603.31;4973433;28;20109;-83
2022/11/27 01:09:02;;;;;;;10.60;5.60;;;;;;;3.34;72.13;102596.41;4972890;28;20031;-82
2022/11/27 01:11:29;;;;;;;9.15;5.10;;;;;;;3.39;72.33;102595.63;4989593;28;20091;-82
2022/11/27 01:13:58;;;;;;;10.25;4.18;;;;;;;3.35;72.63;102590.47;4973224;28;20151;-82
2022/11/27 01:16:24;;;;;;;7.22;4.35;;;;;;;3.38;72.23;102595.63;4972819;28;20027;-82
2022/11/27 01:18:50;;;;;;;11.80;8.57;;;;;;;3.25;72.54;102578.41;4973252;28;20026;-83
2022/11/27 01:21:17;;;;;;;15.20;6.25;;;;;;;3.33;72.78;102589.56;4973227;28;20077;-82
2022/11/27 01:23:43;;;;;;;8.30;5.18;;;;;;;3.37;72.58;102596.47;4956775;28;20485;-82
2022/11/27 01:26:09;;;;;;;10.93;6.05;;;;;;;3.37;72.74;102599.88;4956929;28;20081;-82
2022/11/27 01:28:35;;;;;;;18.80;5.82;;;;;;;3.16;73.21;102582.56;4973069;28;20035;-82
2022/11/27 01:31:04;;;;;;;7.57;4.22;;;;;;;3.21;72.92;102572.38;4972576;28;20065;-82
2022/11/27 01:33:30;;;;;;;10.10;6.82;;;;;;;3.20;73.29;102582.59;4956705;28;20404;-82
2022/11/27 01:35:56;;;;;;;12.85;7.75;;;;;;;3.17;74.00;102589.41;4956735;28;20030;-82
2022/11/27 01:38:23;;;;;;;12.52;8.80;;;;;;;3.22;73.42;102586.03;4956734;28;20485;-83
2022/11/27 01:40:49;;;;;;;14.52;6.85;;;;;;;2.95;73.61;102537.94;4956699;28;20038;-82
2022/11/27 01:43:15;;;;;;;20.55;7.00;;;;;;;3.24;73.37;102585.19;4968310;28;20031;-83
2022/11/27 01:45:40;;;;;;;11.32;6.78;;;;;;;3.08;73.86;102566.25;4936927;28;20031;-83
2022/11/27 01:48:07;;;;;;;11.30;5.38;;;;;;;2.84;74.13;102525.00;4969515;28;20028;-82
2022/11/27 01:50:34;;;;;;;11.77;5.72;;;;;;;3.09;74.04;102577.34;4953245;28;20027;-82
2022/11/27 01:53:04;;;;;;;5.85;4.72;;;;;;;3.07;74.38;102579.91;4953165;28;20034;-82
2022/11/27 01:55:33;;;;;;;11.60;4.70;;;;;;;3.12;74.26;102588.47;4953237;29;20042;-82
2022/11/27 01:58:01;;;;;;;14.18;6.57;;;;;;;2.97;73.92;102559.28;4937265;28;20023;-82
2022/11/27 02:00:26;;;;;;;9.65;6.07;;;;;;;2.99;74.07;102573.81;4936810;28;20114;-83
2022/11/27 02:02:52;;;;;;;13.20;7.35;;;;;;;3.18;73.89;102592.81;4952218;28;20035;-82
2022/11/27 02:05:20;;;;;;;27.90;7.82;;;;;;;3.02;74.00;102573.84;4952748;29;20027;-82
2022/11/27 02:07:46;;;;;;;8.68;5.88;;;;;;;2.91;74.05;102562.63;4953007;28;20493;-82
2022/11/27 02:10:12;;;;;;;8.55;5.40;;;;;;;3.08;74.55;102596.09;4968843;28;20144;-82
2022/11/27 02:12:57;;;;;;;7.85;5.47;;;;;;;3.07;74.65;102589.25;4952741;28;20035;-83
2022/11/27 02:15:49;;;;;;;6.53;5.10;;;;;;;3.08;74.32;102598.66;4968710;28;20053;-82
2022/11/27 02:18:43;;;;;;;9.32;5.60;;;;;;;3.16;73.97;102599.63;4933679;28;20043;-82
2022/11/27 02:21:31;;;;;;;10.98;5.70;;;;;;;3.04;74.10;102576.41;4950266;28;20436;-82
2022/11/27 02:24:32;;;;;;;7.53;6.15;;;;;;;3.17;73.74;102591.97;4953943;28;20043;-82
2022/11/27 02:27:56;;;;;;;8.23;6.35;;;;;;;3.19;73.43;102583.44;4934876;28;20041;-82
2022/11/27 02:30:21;;;;;;;18.80;5.68;;;;;;;3.17;73.46;102591.97;4950904;29;20032;-83
2022/11/27 02:33:12;;;;;;;3.92;3.15;;;;;;;3.24;73.57;102592.88;4935563;29;20426;-82
2022/11/27 02:35:40;;;;;;;12.38;7.20;;;;;;;3.29;73.67;102592.94;4950952;28;20509;-82
2022/11/27 02:38:12;;;;;;;12.05;6.20;;;;;;;3.11;73.40;102556.06;4968562;28;20062;-82
2022/11/27 02:41:05;;;;;;;6.82;5.18;;;;;;;3.38;73.21;102587.94;4952488;29;20035;-82
2022/11/27 02:43:41;;;;;;;;;;;;;;;3.35;73.57;102585.38;4950398;28;20027;-82
2022/11/27 02:46:07;;;;;;;14.95;8.02;;;;;;;3.26;73.97;102585.25;4952093;29;20005;-82
2022/11/27 02:48:38;;;;;;;12.38;7.90;;;;;;;3.22;73.59;102583.47;4952313;29;20032;-82
2022/11/27 02:51:04;;;;;;;12.60;8.02;;;;;;;3.27;73.68;102581.84;4952133;28;20045;-82
2022/11/27 02:53:36;;;;;;;17.17;9.20;;;;;;;3.30;73.48;102575.06;4968364;28;21027;-82
2022/11/27 02:56:02;;;;;;;;;;;;;;;3.38;73.38;102577.72;4952591;28;20054;-83
2022/11/27 02:58:28;;;;;;;7.13;5.97;;;;;;;3.21;73.42;102545.94;4935399;28;20352;-82
2022/11/27 03:00:53;;;;;;;12.80;6.55;;;;;;;3.29;73.28;102549.47;4951825;29;20172;-82
2022/11/27 03:03:21;;;;;;;11.75;8.73;;;;;;;3.46;72.95;102568.44;4951919;28;20023;-82
2022/11/27 03:05:48;;;;;;;8.73;5.45;;;;;;;3.36;73.03;102557.22;4952027;29;20034;-82
2022/11/27 03:08:37;;;;;;;17.52;8.70;;;;;;;3.38;73.38;102570.03;4951973;29;20039;-83
2022/11/27 03:11:02;;;;;;;11.45;8.50;;;;;;;3.31;73.27;102558.88;4951827;28;20408;-82
2022/11/27 03:13:28;;;;;;;11.07;6.75;;;;;;;3.40;73.22;102569.22;4963968;28;20035;-83
2022/11/27 03:16:27;;;;;;;12.98;9.93;;;;;;;3.35;73.01;102570.88;4971054;28;20065;-82
2022/11/27 03:19:08;;;;;;;15.38;7.40;;;;;;;3.35;73.24;102564.91;4975705;28;20532;-82
2022/11/27 03:21:41;;;;;;;24.85;9.15;;;;;;;3.45;73.42;102577.81;4972485;28;20056;-84
2022/11/27 03:24:07;;;;;;;15.10;7.40;;;;;;;3.45;73.08;102570.13;4954630;28;20139;-82
2022/11/27 03:26:32;;;;;;;8.88;6.57;;;;;;;3.54;72.90;102579.63;4970682;28;20023;-82
2022/11/27 03:28:58;;;;;;;17.23;8.02;;;;;;;3.57;73.08;102583.91;4987119;28;20034;-82
2022/11/27 03:31:24;;;;;;;11.63;6.78;;;;;;;3.55;72.83;102583.91;4987047;28;20113;-83
2022/11/27 03:33:50;;;;;;;9.80;4.93;;;;;;;3.42;73.26;102566.66;4987018;28;20030;-82
2022/11/27 03:36:17;;;;;;;11.32;8.18;;;;;;;3.49;73.03;102582.97;4954741;28;20473;-82
2022/11/27 03:38:42;;;;;;;11.98;6.55;;;;;;;3.43;73.50;102584.59;4970890;28;20378;-82
2022/11/27 03:41:19;;;;;;;15.40;6.72;;;;;;;3.46;73.35;102576.13;4970349;28;20073;-82
2022/11/27 03:44:20;;;;;;;8.57;4.90;;;;;;;3.39;73.18;102570.06;4970330;28;20065;-82
2022/11/27 03:46:55;;;;;;;5.85;3.80;;;;;;;3.46;73.12;102578.66;4975590;28;20110;-82
2022/11/27 03:49:23;;;;;;;7.85;5.20;;;;;;;3.49;73.17;102591.50;4970611;28;20038;-82
2022/11/27 03:51:53;;;;;;;6.97;4.82;;;;;;;3.48;73.14;102587.22;4970590;28;20039;-82
2022/11/27 03:54:47;;;;;;;11.57;7.22;;;;;;;3.41;73.30;102581.16;4986763;28;20054;-82
2022/11/27 03:57:36;;;;;;;6.30;5.47;;;;;;;3.40;73.12;102573.47;4984944;28;20031;-83
2022/11/27 04:00:04;;;;;;;17.70;6.30;;;;;;;3.43;73.37;102588.84;4970617;28;20464;-82
2022/11/27 04:02:40;;;;;;;8.65;4.78;;;;;;;3.45;73.04;102582.06;4970557;28;20073;-82
2022/11/27 04:05:06;;;;;;;10.25;5.70;;;;;;;3.48;73.31;102591.47;4970582;28;20026;-82
2022/11/27 04:07:32;;;;;;;10.63;6.57;;;;;;;3.53;73.19;102590.66;4986725;28;20101;-83
2022/11/27 04:09:57;;;;;;;12.73;7.32;;;;;;;3.54;73.02;102578.72;4970206;28;20035;-82
2022/11/27 04:12:22;;;;;;;12.27;6.03;;;;;;;3.46;73.54;102581.22;4970515;28;20031;-82
2022/11/27 04:14:48;;;;;;;8.77;7.07;;;;;;;3.54;73.53;102592.41;4986519;28;20121;-82
2022/11/27 04:17:13;;;;;;;12.20;8.32;;;;;;;3.52;73.42;102583.84;4970798;28;20042;-82
2022/11/27 04:19:39;;;;;;;13.50;6.72;;;;;;;3.50;73.93;102571.88;4986691;28;20405;-82
2022/11/27 04:22:04;;;;;;;6.97;4.78;;;;;;;3.56;73.59;102585.59;4986919;28;20035;-82
2022/11/27 04:24:30;;;;;;;8.63;4.72;;;;;;;3.51;73.57;102582.13;4970085;28;20054;-82
2022/11/27 04:26:55;;;;;;;8.30;5.97;;;;;;;3.52;73.55;102578.72;4990373;28;20121;-82
2022/11/27 04:29:21;;;;;;;4.95;4.13;;;;;;;3.53;73.48;102585.56;4973730;28;20050;-82
2022/11/27 04:31:46;;;;;;;9.68;5.53;;;;;;;3.51;73.92;102597.47;4973768;28;20078;-83
2022/11/27 04:34:12;;;;;;;11.43;5.72;;;;;;;3.59;73.97;102597.56;4989985;28;20038;-83
2022/11/27 04:36:37;;;;;;;10.95;8.52;;;;;;;3.60;73.97;102600.16;4973897;28;20030;-82
2022/11/27 04:39:02;;;;;;;9.38;6.78;;;;;;;3.61;73.62;102608.69;4973720;28;20026;-82
2022/11/27 04:41:28;;;;;;;16.40;8.63;;;;;;;3.56;74.16;102595.00;4973552;28;20085;-82
2022/11/27 04:43:54;;;;;;;13.82;8.65;;;;;;;3.58;74.10;102588.19;4990013;28;20039;-82
2022/11/27 04:46:20;;;;;;;9.77;8.65;;;;;;;3.58;73.66;102588.19;4973584;28;20106;-82
2022/11/27 04:48:45;;;;;;;15.90;7.05;;;;;;;3.61;73.88;102591.63;4989839;28;20038;-83
2022/11/27 04:51:11;;;;;;;13.60;9.95;;;;;;;3.64;74.60;102603.63;4957670;28;20109;-82
2022/11/27 04:53:36;;;;;;;21.55;10.65;;;;;;;3.48;74.10;102568.44;4973214;28;20026;-82
2022/11/27 04:56:02;;;;;;;17.17;11.02;;;;;;;3.54;73.84;102577.06;4973987;28;20035;-82
2022/11/27 04:58:27;;;;;;;17.55;9.10;;;;;;;3.69;72.97;102600.25;4973395;28;20031;-82
2022/11/27 05:00:53;;;;;;;13.02;7.32;;;;;;;3.73;72.98;102598.56;4989816;28;20027;-82
2022/11/27 05:03:18;;;;;;;13.23;8.88;;;;;;;3.67;73.11;102591.69;4973200;28;20034;-82
2022/11/27 05:05:44;;;;;;;17.73;9.90;;;;;;;3.46;73.23;102558.19;4989774;28;20031;-82
2022/11/27 05:08:09;;;;;;;17.40;11.85;;;;;;;3.54;73.38;102579.63;4974100;28;20039;-82
2022/11/27 05:10:35;;;;;;;25.38;11.88;;;;;;;3.63;73.17;102605.28;4973164;28;20489;-82
2022/11/27 05:13:00;;;;;;;26.88;10.40;;;;;;;3.70;73.53;102609.63;4972931;28;20069;-82
2022/11/27 05:15:26;;;;;;;13.63;9.27;;;;;;;3.61;73.30;102596.75;4989220;28;20038;-83
2022/11/27 05:17:51;;;;;;;26.27;11.38;;;;;;;3.60;73.21;102591.59;4973232;28;20034;-82
2022/11/27 05:20:17;;;;;;;16.02;9.48;;;;;;;3.53;73.07;102574.47;4989680;28;20468;-82
2022/11/27 05:22:43;;;;;;;21.27;11.88;;;;;;;3.61;73.50;102591.63;4973164;28;20516;-82
2022/11/27 05:25:09;;;;;;;18.73;12.57;;;;;;;3.69;73.33;102609.63;4972827;28;20046;-82
2022/11/27 05:27:34;;;;;;;20.85;10.85;;;;;;;3.66;73.39;102604.50;4972986;28;20090;-82
2022/11/27 05:30:00;;;;;;;27.35;11.93;;;;;;;3.41;72.84;102554.72;4989527;28;20461;-83
2022/11/27 05:32:25;;;;;;;14.82;10.25;;;;;;;3.71;73.27;102611.34;4972883;28;20037;-82
2022/11/27 05:34:51;;;;;;;15.70;10.80;;;;;;;3.67;73.19;102609.63;4974026;28;20034;-82
2022/11/27 05:37:16;;;;;;;28.02;10.90;;;;;;;3.65;73.41;102611.31;4988537;28;20031;-82
2022/11/27 05:39:42;;;;;;;20.38;11.57;;;;;;;3.67;73.70;102629.25;4989061;28;20031;-82
2022/11/27 05:42:08;;;;;;;28.48;13.35;;;;;;;3.62;74.21;102618.06;4972755;28;20519;-82
2022/11/27 05:44:33;;;;;;;28.27;14.93;;;;;;;3.56;74.14;102612.91;4972397;28;20433;-82
2022/11/27 05:46:59;;;;;;;22.25;13.55;;;;;;;3.53;74.19;102616.25;4972518;28;20412;-82
2022/11/27 05:49:24;;;;;;;16.20;11.52;;;;;;;3.63;74.62;102633.44;4988947;28;20146;-82
2022/11/27 05:51:50;;;;;;;18.65;11.65;;;;;;;3.63;74.36;102633.44;4956323;28;20519;-82
2022/11/27 05:54:15;;;;;;;27.77;13.07;;;;;;;3.53;74.44;102612.84;4972489;28;20061;-82
2022/11/27 05:56:41;;;;;;;18.83;11.32;;;;;;;3.54;73.88;102610.34;4988446;28;20464;-82
2022/11/27 05:59:06;;;;;;;10.85;9.48;;;;;;;3.65;74.27;102631.78;4972591;28;20034;-82
2022/11/27 06:01:32;;;;;;;22.30;12.38;;;;;;;3.77;74.20;102640.44;4972510;28;20460;-82
2022/11/27 06:03:57;;;;;;;13.80;8.98;;;;;;;3.58;74.22;102609.50;4972350;28;20105;-83
2022/11/27 06:06:23;;;;;;;31.38;11.85;;;;;;;3.72;74.79;102632.69;4988571;28;20043;-82
2022/11/27 06:08:48;;;;;;;21.15;10.07;;;;;;;3.87;73.61;102634.56;4988474;28;20030;-82
2022/11/27 06:11:16;;;;;;;16.75;8.63;;;;;;;3.94;72.17;102636.38;4988146;28;20363;-83
2022/11/27 06:13:41;;;;;;;9.80;7.47;;;;;;;3.90;72.65;102642.28;4967576;28;20059;-82
2022/11/27 06:16:09;;;;;;;10.60;7.22;;;;;;;3.83;72.78;102630.25;4921108;29;20062;-82
2022/11/27 06:18:35;;;;;;;14.90;7.03;;;;;;;3.84;72.96;102637.97;4968820;28;20090;-82
2022/11/27 06:21:00;;;;;;;11.93;6.07;;;;;;;3.84;73.13;102635.41;4952535;28;20035;-83
2022/11/27 06:23:26;;;;;;;12.85;7.35;;;;;;;3.78;73.13;102624.25;4936556;28;20032;-82
2022/11/27 06:25:51;;;;;;;11.48;7.13;;;;;;;3.95;72.73;102646.63;4968192;28;20047;-82
2022/11/27 06:28:16;;;;;;;21.05;9.43;;;;;;;3.78;72.89;102616.56;4936456;29;20027;-83
2022/11/27 06:30:42;;;;;;;13.32;7.20;;;;;;;3.86;73.18;102633.72;4952639;28;20035;-82
2022/11/27 06:33:07;;;;;;;20.05;9.40;;;;;;;3.96;73.12;102635.53;4952436;28;20054;-82
2022/11/27 06:35:33;;;;;;;8.77;6.53;;;;;;;4.00;72.88;102641.53;4951923;29;20067;-82
2022/11/27 06:37:58;;;;;;;10.45;8.52;;;;;;;3.91;72.75;102618.41;4936406;28;20417;-82
2022/11/27 06:40:24;;;;;;;16.60;6.88;;;;;;;4.11;71.98;102644.22;4952248;29;20060;-82
2022/11/27 06:42:49;;;;;;;9.82;6.50;;;;;;;4.19;72.42;102652.84;4951868;28;20501;-83
2022/11/27 06:45:15;;;;;;;9.68;6.43;;;;;;;3.91;71.48;102601.31;4936323;29;20031;-82
2022/11/27 06:47:40;;;;;;;10.48;7.10;;;;;;;4.16;71.87;102651.09;4951825;28;20387;-82
2022/11/27 06:50:06;;;;;;;14.25;8.70;;;;;;;4.09;71.81;102640.78;4968094;28;20042;-82
2022/11/27 06:52:31;;;;;;;17.63;9.15;;;;;;;4.22;71.31;102651.16;4952283;28;20478;-83
2022/11/27 06:54:57;;;;;;;14.73;10.02;;;;;;;4.17;71.95;102646.84;4967914;28;20023;-82
2022/11/27 06:57:22;;;;;;;25.15;13.63;;;;;;;4.12;72.03;102644.22;4952194;29;20032;-82
2022/11/27 06:59:48;;;;;;;31.20;14.80;;;;;;;4.14;72.21;102660.47;4952001;28;20030;-82
2022/11/27 07:02:14;;;;;;;30.10;14.88;;;;;;;4.18;71.83;102663.94;4951872;28;20031;-83
2022/11/27 07:04:39;;;;;;;18.42;10.40;;;;;;;4.23;72.26;102658.03;4951789;29;20455;-82
2022/11/27 07:07:05;;;;;;;20.75;10.10;;;;;;;4.26;71.35;102645.22;4935959;29;20031;-82
2022/11/27 07:09:30;;;;;;;14.45;8.25;;;;;;;4.07;71.25;102609.16;4968033;28;20035;-82
2022/11/27 07:11:56;;;;;;;10.82;6.80;;;;;;;4.24;71.32;102634.13;4936029;28;20039;-82
2022/11/27 07:14:21;;;;;;;7.75;5.95;;;;;;;4.31;70.86;102635.88;4951920;28;20038;-82
2022/11/27 07:16:47;;;;;;;11.15;7.00;;;;;;;4.36;71.18;102653.00;4951597;28;20035;-83
2022/11/27 07:19:13;;;;;;;24.70;7.85;;;;;;;4.22;71.32;102624.66;4935261;28;20027;-83
2022/11/27 07:21:39;;;;;;;7.60;5.15;;;;;;;4.14;71.35;102619.50;4951681;28;20062;-82
2022/11/27 07:24:04;;;;;;;14.70;7.18;;;;;;;4.38;70.96;102652.16;4935334;29;20134;-82
2022/11/27 07:26:30;;;;;;;7.28;5.25;;;;;;;4.41;70.55;102641.06;4951747;28;20031;-82
2022/11/27 07:28:56;;;;;;;13.65;8.25;;;;;;;4.40;70.96;102644.47;4935670;28;20086;-82
2022/11/27 07:31:22;;;;;;;8.98;6.25;;;;;;;4.24;71.12;102620.44;4951609;29;20031;-82
2022/11/27 07:33:48;;;;;;;8.18;4.45;;;;;;;4.47;70.56;102648.81;4951099;28;20413;-82
2022/11/27 07:36:21;;;;;;;13.77;7.00;;;;;;;4.42;71.30;102632.53;4935632;28;20118;-83
2022/11/27 07:38:47;;;;;;;10.18;6.10;;;;;;;4.48;70.94;102645.41;4951749;28;20500;-82
2022/11/27 07:41:12;;;;;;;9.23;6.93;;;;;;;4.47;70.77;102642.00;4935577;28;20024;-82
2022/11/27 07:43:38;;;;;;;8.55;5.07;;;;;;;4.45;70.63;102643.69;4951855;29;20071;-82
2022/11/27 07:46:10;;;;;;;11.45;5.93;;;;;;;4.29;69.77;102595.69;4951128;28;20509;-82
2022/11/27 07:48:36;;;;;;;11.63;6.97;;;;;;;4.48;70.29;102640.28;4950963;28;20111;-82
2022/11/27 07:51:04;;;;;;;18.83;7.55;;;;;;;4.53;70.37;102648.88;4935713;29;20030;-83
2022/11/27 07:53:30;;;;;;;16.63;8.80;;;;;;;4.39;70.71;102635.94;4951464;28;20035;-82
2022/11/27 07:55:58;;;;;;;11.90;6.43;;;;;;;4.47;70.75;102641.13;4967165;28;20110;-82
2022/11/27 07:58:23;;;;;;;14.05;7.28;;;;;;;4.47;70.47;102630.88;4951760;28;20028;-82
2022/11/27 08:00:49;;;;;;;10.63;6.53;;;;;;;4.59;71.03;102649.78;4937792;28;20031;-82
2022/11/27 08:03:15;;;;;;;12.27;7.10;;;;;;;4.58;70.36;102630.13;4971215;28;20035;-83
2022/11/27 08:05:41;;;;;;;8.30;5.63;;;;;;;4.62;70.21;102625.84;4939320;28;20042;-82
2022/11/27 08:08:06;;;;;;;11.80;7.40;;;;;;;4.66;70.22;102647.28;4955100;28;20118;-82
2022/11/27 08:10:35;;;;;;;8.98;5.15;;;;;;;4.81;70.01;102658.47;4955285;28;20031;-83
2022/11/27 08:13:01;;;;;;;19.05;8.75;;;;;;;4.85;70.33;102661.94;4955449;28;20024;-82
2022/11/27 08:15:26;;;;;;;12.93;7.18;;;;;;;4.68;70.36;102628.47;4939026;28;20034;-83
2022/11/27 08:17:52;;;;;;;11.75;5.75;;;;;;;4.87;70.04;102648.28;4938712;28;20038;-83
2022/11/27 08:20:18;;;;;;;11.93;6.32;;;;;;;4.96;69.95;102659.47;4954962;28;20082;-82
2022/11/27 08:22:44;;;;;;;18.10;9.18;;;;;;;4.61;70.55;102601.94;4938926;29;20031;-82
2022/11/27 08:25:10;;;;;;;12.48;8.20;;;;;;;4.99;70.57;102670.59;4954442;28;20047;-82
2022/11/27 08:27:35;;;;;;;14.05;6.57;;;;;;;4.90;69.87;102647.44;4923001;29;20051;-82
2022/11/27 08:30:01;;;;;;;13.18;6.32;;;;;;;4.97;70.19;102653.47;4954721;28;20035;-82
2022/11/27 08:32:26;;;;;;;14.98;8.27;;;;;;;4.92;70.51;102644.88;4954491;28;20033;-82
2022/11/27 08:34:52;;;;;;;11.65;6.07;;;;;;;4.98;69.96;102660.31;4955560;28;20437;-83
2022/11/27 08:37:17;;;;;;;13.70;7.88;;;;;;;4.95;69.93;102661.16;4938722;29;20035;-83
2022/11/27 08:39:43;;;;;;;17.58;9.50;;;;;;;4.93;69.63;102662.88;4938653;28;20035;-83
2022/11/27 08:42:08;;;;;;;10.82;7.38;;;;;;;4.98;69.98;102662.88;4938626;28;20482;-82
2022/11/27 08:44:33;;;;;;;11.63;6.65;;;;;;;5.04;70.04;102655.25;4922673;29;20086;-82
2022/11/27 08:46:59;;;;;;;12.25;6.88;;;;;;;5.09;69.70;102659.53;4954162;28;20031;-82
2022/11/27 08:49:24;;;;;;;9.80;5.50;;;;;;;5.21;69.28;102661.34;4938455;28;20058;-82
2022/11/27 08:51:50;;;;;;;14.57;8.82;;;;;;;5.24;68.79;102650.22;4954100;28;20508;-82
2022/11/27 08:54:15;;;;;;;10.60;5.13;;;;;;;5.32;68.82;102659.69;4954147;28;20032;-82
2022/11/27 08:56:41;;;;;;;16.55;8.23;;;;;;;5.22;68.71;102637.38;4954685;28;20035;-82
2022/11/27 08:59:07;;;;;;;13.93;9.35;;;;;;;5.32;69.06;102656.25;4938200;28;20572;-82
2022/11/27 09:01:33;;;;;;;9.38;6.18;;;;;;;5.31;68.71;102650.28;4937960;29;20063;-82
2022/11/27 09:03:58;;;;;;;16.67;7.97;;;;;;;5.39;69.08;102648.56;4955136;28;20070;-82
2022/11/27 09:06:27;;;;;;;11.75;7.28;;;;;;;5.42;68.87;102650.31;4954138;28;20485;-82
2022/11/27 09:08:54;;;;;;;16.40;9.43;;;;;;;5.38;69.76;102640.88;4953979;28;20034;-82
2022/11/27 09:11:20;;;;;;;22.63;13.63;;;;;;;5.33;69.07;102614.34;4934346;28;20424;-82
2022/11/27 09:13:46;;;;;;;21.27;12.98;;;;;;;5.45;69.82;102646.06;4957180;28;20043;-82
2022/11/27 09:16:13;;;;;;;20.75;9.90;;;;;;;5.57;70.02;102644.38;4956861;28;20516;-82
2022/11/27 09:18:38;;;;;;;18.52;8.77;;;;;;;5.64;68.59;102644.41;4973143;28;20178;-82
2022/11/27 09:21:06;;;;;;;19.92;8.05;;;;;;;5.63;69.13;102642.69;4973422;28;20035;-82
2022/11/27 09:23:31;;;;;;;18.13;10.50;;;;;;;5.66;68.89;102634.16;4972941;28;20031;-83
2022/11/27 09:26:01;;;;;;;13.82;9.38;;;;;;;5.71;69.30;102629.91;4972898;28;20053;-82
2022/11/27 09:28:26;;;;;;;12.77;5.78;;;;;;;5.79;68.74;102617.06;4972987;28;20121;-82
2022/11/27 09:30:55;;;;;;;19.38;8.40;;;;;;;5.95;68.12;102636.84;4973694;28;20046;-83
2022/11/27 09:33:24;;;;;;;26.17;10.95;;;;;;;5.98;68.78;102634.25;4956865;28;20045;-82
2022/11/27 09:35:50;;;;;;;23.92;13.80;;;;;;;5.98;68.97;102622.28;4973344;28;20468;-82
2022/11/27 09:38:15;;;;;;;16.60;11.25;;;;;;;5.88;68.84;102605.09;4973045;28;20023;-82
2022/11/27 09:40:46;;;;;;;37.25;13.57;;;;;;;6.13;68.75;102628.31;4956786;28;20505;-82
2022/11/27 09:43:12;;;;;;;25.98;14.18;;;;;;;6.13;68.86;102613.75;4971923;28;20492;-82
2022/11/27 09:45:46;;;;;;;22.92;9.60;;;;;;;6.09;68.68;102611.16;4972488;28;20031;-82
2022/11/27 09:48:15;;;;;;;25.90;12.25;;;;;;;6.21;68.48;102611.19;4973078;28;20085;-82
2022/11/27 09:50:49;;;;;;;26.48;12.93;;;;;;;6.24;68.78;102603.47;4972499;28;20081;-82
2022/11/27 09:53:31;;;;;;;47.90;13.35;;;;;;;6.38;68.51;102614.59;4957290;28;20068;-82
2022/11/27 09:55:57;;;;;;;13.80;8.25;;;;;;;6.31;68.33;102589.78;4967681;28;20031;-82
2022/11/27 09:58:39;;;;;;;18.13;9.52;;;;;;;6.43;68.75;102597.47;4953223;29;20829;-82
2022/11/27 10:01:12;;;;;;;36.95;10.38;;;;;;;6.47;68.34;102583.75;4938450;28;20512;-82
2022/11/27 10:03:39;;;;;;;13.00;8.80;;;;;;;6.46;68.09;102571.75;4953369;28;20024;-82
2022/11/27 10:06:27;;;;;;;23.75;8.13;;;;;;;6.27;68.01;102521.22;4953209;28;20054;-83
2022/11/27 10:09:23;;;;;;;14.65;7.78;;;;;;;6.72;67.30;102578.59;4939486;29;20035;-82
2022/11/27 10:11:57;;;;;;;16.55;8.90;;;;;;;6.70;68.76;102564.88;4953142;29;20034;-83
2022/11/27 10:14:26;;;;;;;22.35;9.75;;;;;;;6.76;67.67;102575.13;4936909;29;20035;-82
2022/11/27 10:16:56;;;;;;;20.20;11.27;;;;;;;6.59;68.48;102552.91;4936897;28;20031;-82
2022/11/27 10:19:33;;;;;;;23.48;9.20;;;;;;;6.53;68.97;102534.91;4952890;28;20027;-82
2022/11/27 10:22:04;;;;;;;13.75;6.32;;;;;;;6.69;68.71;102556.31;4936645;28;20482;-82
2022/11/27 10:24:44;;;;;;;14.60;7.82;;;;;;;6.40;67.89;102510.06;4936482;29;20552;-82
2022/11/27 10:27:33;;;;;;;23.38;9.82;;;;;;;6.75;68.61;102563.13;4952016;29;20030;-83
2022/11/27 10:29:58;;;;;;;11.70;6.78;;;;;;;6.69;69.34;102558.88;4952728;28;20118;-83
2022/11/27 10:32:25;;;;;;;18.00;8.45;;;;;;;6.69;68.59;102558.03;4952681;28;20382;-82
2022/11/27 10:35:04;;;;;;;21.48;10.35;;;;;;;6.79;68.73;102562.28;4936653;29;20121;-82
2022/11/27 10:37:32;;;;;;;13.00;8.25;;;;;;;6.76;68.85;102550.28;4952398;29;20035;-82
2022/11/27 10:40:19;;;;;;;12.60;7.20;;;;;;;6.83;68.78;102563.97;4958832;28;20114;-82
2022/11/27 10:43:14;;;;;;;30.02;10.07;;;;;;;6.62;69.24;102513.44;4970678;28;20459;-83
2022/11/27 10:45:58;;;;;;;14.38;7.80;;;;;;;6.88;68.42;102554.53;4972288;28;20078;-83
2022/11/27 10:48:23;;;;;;;16.25;8.63;;;;;;;6.86;69.37;102548.53;4971546;28;20034;-82
2022/11/27 10:50:49;;;;;;;10.95;8.40;;;;;;;6.86;69.32;102546.81;4971526;28;20455;-82
2022/11/27 10:53:19;;;;;;;22.77;12.57;;;;;;;6.92;68.97;102560.53;4955284;28;20025;-83
2022/11/27 10:55:59;;;;;;;23.13;9.68;;;;;;;6.81;69.27;102561.41;4971215;28;20022;-82
2022/11/27 10:58:26;;;;;;;14.88;9.05;;;;;;;6.78;69.19;102545.13;4972604;28;20033;-82
2022/11/27 11:01:03;;;;;;;9.15;5.97;;;;;;;6.61;69.31;102520.31;4971420;28;20023;-82
2022/11/27 11:03:29;;;;;;;12.68;7.82;;;;;;;6.88;69.48;102545.13;4955480;28;20129;-82
2022/11/27 11:05:59;;;;;;;13.90;7.63;;;;;;;6.83;69.47;102535.69;4971320;28;20505;-83
2022/11/27 11:08:27;;;;;;;20.75;7.45;;;;;;;6.94;69.31;102527.94;4971241;28;20046;-83
2022/11/27 11:10:56;;;;;;;23.38;9.70;;;;;;;7.04;68.99;102534.75;4954940;28;20030;-83
2022/11/27 11:13:26;;;;;;;15.95;9.70;;;;;;;7.04;68.83;102525.31;4971075;28;20027;-83
2022/11/27 11:15:57;;;;;;;23.00;7.50;;;;;;;7.09;68.43;102527.88;4955420;28;20493;-83
2022/11/27 11:18:24;;;;;;;13.68;7.15;;;;;;;6.91;68.97;102510.78;4955033;28;20041;-83
2022/11/27 11:20:54;;;;;;;25.85;11.80;;;;;;;6.85;68.97;102503.94;4971221;28;20034;-83
2022/11/27 11:23:40;;;;;;;19.73;8.00;;;;;;;7.01;69.05;102509.91;4971300;28;20511;-83
2022/11/27 11:26:23;;;;;;;11.70;7.65;;;;;;;6.95;68.80;102502.19;4969201;28;20046;-83
2022/11/27 11:28:56;;;;;;;10.35;6.85;;;;;;;6.95;68.72;102498.75;4987142;28;20031;-83
2022/11/27 11:31:43;;;;;;;15.05;7.72;;;;;;;6.75;68.85;102466.25;4955002;28;20067;-83
2022/11/27 11:34:24;;;;;;;15.05;8.93;;;;;;;6.97;68.90;102503.03;4969688;28;20038;-83